Latest Weather Observations for Kununurra Airport

IDW60801

Issued at 10:33 am WST Tuesday 22 September 2020 (issued every 10 minutes, with the page automatically refreshed every 10 minutes)

About weather observations | Map of weather stations | Latest weather observations for WA | Other Formats
Station Details ID: 002056 Name: KUNUNURRA AERO Lat: -15.78 Lon: 128.71 Height: 44.0 m
Data from the previous 72 hours. | See also: Recent months at Kununurra Airport
Date/Time
WST
Temp
°C
App
Temp
°C
Dew
Point
°C
Rel
Hum
%
Delta-T
°C
Wind Press
QNH
hPa
Press
MSL
hPa
Rain since
9am
mm
Dir  Spd
km/h
Gust
km/h
Spd
kts
Gust
kts
22/10:30am 35.2 36.4 18.3 36 11.0 NNW 9 19 5 10 1011.3 1011.0 0.0
22/10:00am 34.5 35.5 17.7 37 10.9 NE 9 17 5 9 1011.9 1011.6 0.0
22/09:30am 34.7 35.2 16.5 33 11.6 ENE 9 11 5 6 1012.4 1012.2 0.0
22/09:00am 33.5 33.2 14.5 31 11.7 N 9 17 5 9 1012.9 1012.7 0.0
22/08:30am 33.5 33.1 14.0 30 11.9 E 9 15 5 8 1013.0 1012.8 0.0
22/08:00am 32.6 31.7 13.8 32 11.4 E 11 17 6 9 1012.7 1012.5 0.0
22/07:30am 30.8 33.3 19.8 52 7.2 NE 6 9 3 5 1012.6 1012.4 0.0
22/07:00am 27.9 31.1 22.4 72 3.7 NE 9 11 5 6 1012.3 1012.1 0.0
22/06:30am 26.3 30.6 21.1 73 3.4 CALM 0 0 0 0 1011.9 1011.6 0.0
22/06:00am 23.9 28.4 21.6 87 1.5 CALM 0 0 0 0 1011.6 1011.3 0.0
22/05:30am 23.7 27.9 21.0 85 1.8 CALM 0 0 0 0 1011.3 1011.0 0.0
22/05:00am 23.6 27.0 19.3 77 2.8 CALM 0 0 0 0 1010.9 1010.6 0.0
22/04:30am 24.3 28.2 20.4 79 2.5 CALM 0 0 0 0 1010.5 1010.2 0.0
22/04:00am 24.2 28.5 21.1 83 2.0 CALM 0 0 0 0 1010.2 1009.9 0.0
22/03:30am 24.5 28.1 19.8 75 3.0 CALM 0 0 0 0 1009.9 1009.6 0.0
22/03:00am 25.2 29.2 20.5 75 3.1 CALM 0 0 0 0 1009.6 1009.3 0.0
22/02:30am 25.3 29.1 21.0 77 2.8 NE 2 6 1 3 1009.6 1009.3 0.0
22/02:00am 25.8 28.6 20.8 74 3.3 N 7 9 4 5 1009.7 1009.4 0.0
22/01:30am 26.5 30.0 20.3 68 4.1 W 2 9 1 5 1010.0 1009.7 0.0
22/01:00am 26.8 29.7 21.1 71 3.8 NE 7 13 4 7 1010.0 1009.7 0.0
22/12:30am 27.0 31.1 20.8 69 4.1 CALM 0 0 0 0 1010.2 1009.9 0.0
22/12:00am 27.4 29.9 20.2 65 4.7 W 7 13 4 7 1010.1 1009.8 0.0
 
Date/Time
WST
Temp
°C
App
Temp
°C
Dew
Point
°C
Rel
Hum
%
Delta-T
°C
Wind Press
QNH
hPa
Press
MSL
hPa
Rain since
9am
mm
Dir  Spd
km/h
Gust
km/h
Spd
kts
Gust
kts
21/11:30pm 27.3 29.3 19.9 64 4.8 N 9 11 5 6 1009.8 1009.5 0.0
21/11:00pm 27.8 30.0 19.6 61 5.3 NNW 7 9 4 5 1010.1 1009.8 0.0
21/10:30pm 27.7 30.4 19.5 61 5.3 N 4 7 2 4 1009.9 1009.6 0.0
21/10:00pm 28.3 29.6 20.1 61 5.4 NNE 13 15 7 8 1009.9 1009.6 0.0
21/09:30pm 28.5 29.7 20.0 60 5.6 NNE 13 17 7 9 1009.8 1009.5 0.0
21/09:00pm 29.1 30.3 20.0 58 6.0 NNE 13 17 7 9 1009.6 1009.3 0.0
21/08:30pm 29.1 30.5 20.3 59 5.8 NNE 13 15 7 8 1009.7 1009.4 0.0
21/08:00pm 29.7 31.9 20.3 57 6.2 N 9 13 5 7 1009.5 1009.2 0.0
21/07:30pm 30.8 32.5 20.1 53 7.1 N 11 15 6 8 1009.2 1008.9 0.0
21/07:00pm 31.4 32.6 20.0 50 7.5 N 13 17 7 9 1009.0 1008.7 0.0
21/06:30pm 32.5 33.4 20.1 48 8.2 N 15 19 8 10 1008.5 1008.2 0.0
21/06:00pm 32.8 34.0 20.7 49 8.1 N 15 22 8 12 1008.1 1007.8 0.0
21/05:30pm 34.0 35.6 20.7 45 8.9 N 13 15 7 8 1007.6 1007.3 0.0
21/05:00pm 35.3 37.1 21.2 44 9.6 N 13 19 7 10 1007.3 1007.0 0.0
21/04:30pm 35.4 37.1 21.6 44 9.4 N 15 22 8 12 1007.0 1006.7 0.0
21/04:00pm 36.7 37.3 21.3 40 10.5 N 20 28 11 15 1006.6 1006.3 0.0
21/03:30pm 38.5 40.0 18.9 32 13.0 N 9 15 5 8 1006.3 1006.0 0.0
21/03:11pm 38.4 39.5 17.2 28 13.8 N 7 13 4 7 1006.3 1006.0 0.0
21/03:00pm 38.8 38.7 17.0 27 14.2 N 13 20 7 11 1006.3 1006.0 0.0
21/02:52pm 38.6 38.3 17.4 29 13.8 N 15 19 8 10 1006.3 1006.0 0.0
21/02:30pm 39.1 39.4 17.8 28 14.0 N 13 20 7 11 1006.5 1006.2 0.0
21/02:00pm 38.9 38.9 17.1 28 14.2 NNW 13 20 7 11 1006.8 1006.5 0.0
21/01:30pm 38.8 38.6 17.5 28 13.9 N 15 20 8 11 1007.1 1006.8 0.0
21/01:00pm 39.1 40.1 17.8 28 14.0 N 9 15 5 8 1007.5 1007.2 0.0
21/12:30pm 37.8 38.6 17.2 29 13.4 ENE 9 15 5 8 1008.1 1007.8 0.0
21/12:00pm 37.3 37.5 16.8 29 13.2 NNE 11 19 6 10 1008.7 1008.4 0.0
21/11:30am 37.3 38.1 17.3 30 13.0 NE 9 13 5 7 1009.3 1009.0 0.0
21/11:00am 36.7 38.3 19.2 36 11.6 NNE 9 17 5 9 1010.0 1009.7 0.0
21/10:30am 35.7 37.0 19.2 38 10.9 NNE 11 24 6 13 1010.6 1010.3 0.0
21/10:00am 34.8 36.8 20.0 42 9.9 NNW 9 15 5 8 1011.1 1010.8 0.0
21/09:30am 33.7 36.1 20.1 44 9.1 NE 7 15 4 8 1011.6 1011.3 0.0
21/09:00am 33.3 35.2 20.5 47 8.6 N 11 17 6 9 1011.8 1011.5 0.0
21/08:30am 32.6 34.6 21.5 52 7.5 NNE 13 17 7 9 1012.0 1011.7 0.0
21/08:00am 30.6 32.1 20.5 54 6.7 NNE 13 19 7 10 1012.1 1011.8 0.0
21/07:30am 29.3 32.4 21.5 63 5.2 NNE 7 9 4 5 1012.0 1011.7 0.0
21/07:00am 28.2 31.5 21.5 67 4.5 NE 6 7 3 4 1011.9 1011.6 0.0
21/06:30am 27.1 30.5 20.9 69 4.1 NE 4 7 2 4 1011.5 1011.2 0.0
21/06:00am 24.8 29.1 21.1 80 2.4 CALM 0 0 0 0 1011.3 1011.0 0.0
21/05:30am 23.5 27.6 20.8 85 1.8 CALM 0 0 0 0 1011.0 1010.7 0.0
21/05:00am 24.0 27.9 20.3 80 2.4 CALM 0 0 0 0 1010.6 1010.3 0.0
21/04:30am 24.4 27.6 21.3 83 2.0 ESE 6 9 3 5 1010.1 1009.8 0.0
21/04:00am 24.2 27.5 21.5 85 1.8 ESE 6 9 3 5 1009.9 1009.6 0.0
21/03:42am 25.0 28.3 21.9 83 2.1 S 7 9 4 5 1009.5 1009.2 0.0
21/03:30am 24.6 27.3 20.3 77 2.8 SSW 6 7 3 4 1009.4 1009.1 0.0
21/03:11am 24.7 27.5 20.4 77 2.8 W 6 9 3 5 1009.5 1009.2 0.0
21/03:00am 24.9 29.0 20.8 78 2.7 CALM 0 0 0 0 1009.5 1009.2 0.0
21/02:59am 24.9 29.0 20.8 78 2.7 CALM 0 0 0 0 1009.5 1009.2 0.0
21/02:30am 24.7 26.9 20.4 77 2.8 NNW 9 11 5 6 1009.3 1009.0 0.0
21/02:00am 25.6 27.8 20.4 73 3.4 N 9 13 5 7 1009.5 1009.2 0.0
21/01:30am 25.8 27.0 20.6 73 3.4 NNE 15 19 8 10 1009.7 1009.4 0.0
21/01:00am 25.5 26.9 20.3 73 3.4 N 13 15 7 8 1009.6 1009.3 0.0
21/12:30am 25.1 27.4 20.6 76 2.9 NNE 9 13 5 7 1009.7 1009.4 0.0
21/12:00am 26.2 28.6 19.6 67 4.3 W 6 7 3 4 1009.7 1009.4 0.0
 
Date/Time
WST
Temp
°C
App
Temp
°C
Dew
Point
°C
Rel
Hum
%
Delta-T
°C
Wind Press
QNH
hPa
Press
MSL
hPa
Rain since
9am
mm
Dir  Spd
km/h
Gust
km/h
Spd
kts
Gust
kts
20/11:30pm 26.8 28.9 20.2 67 4.3 NNE 9 11 5 6 1010.0 1009.7 0.0
20/11:00pm 27.0 28.8 20.3 66 4.4 NNE 11 13 6 7 1010.5 1010.2 0.0
20/10:30pm 27.1 29.5 20.0 65 4.6 N 7 9 4 5 1010.6 1010.3 0.0
20/10:00pm 27.7 29.3 20.0 63 5.0 N 11 13 6 7 1010.7 1010.4 0.0
20/09:30pm 28.4 29.7 20.2 61 5.4 N 13 17 7 9 1010.7 1010.4 0.0
20/09:00pm 29.0 30.2 20.7 61 5.5 NNE 15 20 8 11 1010.6 1010.3 0.0
20/08:30pm 29.5 30.6 21.2 61 5.6 NNE 17 20 9 11 1010.4 1010.1 0.0
20/08:00pm 29.6 31.2 20.7 58 5.9 NNE 13 17 7 9 1010.1 1009.8 0.0
20/07:30pm 30.5 31.9 20.4 54 6.7 NNE 13 17 7 9 1009.5 1009.2 0.0
20/07:00pm 31.9 33.0 20.5 51 7.6 N 15 20 8 11 1009.0 1008.7 0.0
20/06:30pm 32.6 34.1 20.5 49 8.1 N 13 17 7 9 1008.6 1008.3 0.0
20/06:00pm 33.5 34.1 20.3 46 8.8 N 17 22 9 12 1008.1 1007.8 0.0
20/05:30pm 34.2 34.4 20.6 45 9.1 N 20 26 11 14 1007.6 1007.3 0.0
20/05:00pm 35.8 37.1 20.9 42 10.1 N 15 20 8 11 1007.1 1006.8 0.0
20/04:30pm 36.7 37.2 20.9 39 10.7 N 19 24 10 13 1006.9 1006.6 0.0
20/04:00pm 37.6 37.4 21.3 39 11.2 N 24 32 13 17 1006.7 1006.4 0.0
20/03:30pm 38.7 39.5 19.0 31 13.1 N 13 19 7 10 1006.5 1006.2 0.0
20/03:00pm 39.0 39.5 16.6 27 14.5 NNW 9 20 5 11 1006.4 1006.1 0.0
20/02:30pm 38.5 38.9 16.2 27 14.3 WNW 9 13 5 7 1006.6 1006.3 0.0
20/02:00pm 39.4 40.7 17.5 27 14.4 NNW 7 11 4 6 1006.8 1006.5 0.0
20/01:30pm 38.8 39.5 17.0 27 14.1 NNE 9 15 5 8 1007.2 1006.9 0.0
20/01:00pm 39.1 39.4 16.1 26 14.8 NNW 9 15 5 8 1007.4 1007.1 0.0
20/12:30pm 38.2 38.1 15.9 26 14.2 NNE 11 19 6 10 1008.0 1007.7 0.0
20/12:00pm 38.2 38.9 17.0 28 13.7 NNE 9 15 5 8 1008.7 1008.4 0.0
20/11:30am 38.4 39.9 17.7 29 13.5 WNW 6 11 3 6 1009.2 1008.9 0.0
20/11:00am 36.9 37.4 16.5 30 13.1 ESE 9 15 5 8 1009.7 1009.4 0.0
20/10:30am 36.1 36.9 17.3 33 12.1 ENE 9 15 5 8 1010.4 1010.1 0.0
20/10:00am 35.7 37.5 19.6 39 10.7 E 9 13 5 7 1010.9 1010.6 0.0
20/09:30am 35.0 37.6 20.5 42 9.7 WSW 7 11 4 6 1011.4 1011.1 0.0
20/09:00am 33.0 35.8 20.9 49 8.1 SW 7 15 4 8 1011.8 1011.5 0.0
20/08:30am 32.2 35.4 21.7 54 7.1 ENE 7 11 4 6 1012.2 1012.0 0.0
20/08:00am 30.7 34.2 21.8 59 6.0 NE 6 9 3 5 1012.4 1012.2 0.0
20/07:30am 29.2 33.0 22.7 68 4.4 NE 7 9 4 5 1012.3 1012.1 0.0
20/07:00am 27.3 30.7 22.0 73 3.6 S 7 9 4 5 1012.1 1011.8 0.0
20/06:30am 26.3 30.0 22.2 78 2.8 NE 6 7 3 4 1011.9 1011.6 0.0
20/06:00am 24.9 28.9 22.0 84 1.9 S 4 6 2 3 1011.6 1011.3 0.0
20/05:30am 23.9 27.6 22.3 91 1.1 SSE 6 7 3 4 1011.3 1011.0 0.0
20/05:00am 23.7 27.6 22.5 93 0.8 S 6 7 3 4 1011.0 1010.7 0.0
20/04:30am 23.0 26.9 20.3 85 1.7 CALM 0 0 0 0 1010.7 1010.4 0.0
20/04:00am 23.0 26.8 20.1 84 1.9 CALM 0 0 0 0 1010.4 1010.1 0.0
20/03:30am 23.6 27.5 21.9 90 1.1 E 4 6 2 3 1010.1 1009.8 0.0
20/03:00am 23.7 26.9 21.2 86 1.6 E 6 7 3 4 1010.0 1009.7 0.0
20/02:30am 23.9 27.7 20.2 80 2.4 CALM 0 0 0 0 1009.9 1009.6 0.0
20/02:00am 24.7 28.7 21.4 82 2.2 N 2 7 1 4 1009.9 1009.6 0.0
20/01:30am 24.5 27.6 21.0 81 2.3 N 6 9 3 5 1009.9 1009.6 0.0
20/01:00am 25.0 28.1 21.1 79 2.6 N 6 7 3 4 1010.2 1009.9 0.0
20/12:30am 24.9 27.2 21.4 81 2.3 NNE 11 11 6 6 1010.2 1009.9 0.0
20/12:00am 25.1 29.0 21.2 79 2.6 NNE 2 9 1 5 1010.3 1010.0 0.0
 
Date/Time
WST
Temp
°C
App
Temp
°C
Dew
Point
°C
Rel
Hum
%
Delta-T
°C
Wind Press
QNH
hPa
Press
MSL
hPa
Rain since
9am
mm
Dir  Spd
km/h
Gust
km/h
Spd
kts
Gust
kts
19/11:30pm 25.4 27.6 21.1 77 2.8 NNE 11 13 6 7 1010.7 1010.4 0.0
19/11:00pm 25.9 28.2 20.7 73 3.4 N 9 11 5 6 1010.9 1010.6 0.0
19/10:30pm 26.5 28.7 20.3 68 4.1 N 9 11 5 6 1011.0 1010.7 0.0
19/10:00pm 27.1 28.8 20.2 66 4.5 N 11 13 6 7 1011.0 1010.7 0.0
19/09:30pm 27.6 28.8 19.9 63 5.0 N 13 17 7 9 1011.0 1010.7 0.0
19/09:00pm 28.4 29.5 19.6 59 5.7 N 13 15 7 8 1010.9 1010.6 0.0
19/08:30pm 28.5 29.2 19.7 59 5.7 NNE 15 17 8 9 1010.8 1010.5 0.0
19/08:00pm 29.3 30.2 19.3 55 6.5 N 13 15 7 8 1010.6 1010.3 0.0
19/07:30pm 29.8 30.8 19.5 54 6.7 NNE 13 15 7 8 1010.3 1010.0 0.0
19/07:00pm 30.4 31.4 19.4 51 7.2 N 13 17 7 9 1010.0 1009.7 0.0
19/06:30pm 31.4 32.4 19.4 49 7.9 N 13 17 7 9 1009.6 1009.3 0.0
19/06:00pm 32.3 32.6 19.5 46 8.4 N 17 19 9 10 1009.0 1008.7 0.0
19/05:30pm 32.7 33.0 18.8 43 9.1 N 15 22 8 12 1008.5 1008.2 0.0
19/05:00pm 35.1 35.7 16.9 34 11.7 N 9 11 5 6 1008.0 1007.7 0.0
19/04:30pm 36.8 37.0 15.8 28 13.3 N 9 13 5 7 1007.7 1007.4 0.0
19/04:00pm 37.1 37.4 16.1 29 13.4 NW 9 13 5 7 1007.6 1007.3 0.0
19/03:30pm 37.0 36.7 15.5 28 13.6 NNE 11 17 6 9 1007.7 1007.4 0.0
19/03:00pm 37.4 38.0 15.8 27 13.8 NW 7 17 4 9 1007.9 1007.6 0.0
19/02:30pm 38.2 37.7 17.0 28 13.7 N 15 22 8 12 1007.9 1007.6 0.0
19/02:00pm 37.0 36.5 16.0 28 13.4 NNE 13 17 7 9 1008.3 1008.0 0.0
19/01:30pm 37.3 37.3 16.3 29 13.4 NNW 11 22 6 12 1008.7 1008.4 0.0
19/01:00pm 36.5 37.2 17.1 31 12.5 NE 9 17 5 9 1009.2 1008.9 0.0
19/12:30pm 36.2 36.5 15.9 30 12.9 ESE 9 17 5 9 1009.8 1009.5 0.0
19/12:00pm 36.2 36.6 16.4 31 12.7 NE 9 13 5 7 1010.5 1010.2 0.0
19/11:30am 36.0 36.9 16.7 31 12.4 ENE 7 19 4 10 1011.2 1010.9 0.0
19/11:00am 35.2 35.9 16.0 31 12.2 NNE 7 13 4 7 1011.7 1011.4 0.0

Other formats

Comma delimited format used in spreadsheet applications
http://www.bom.gov.au/fwo/IDW60801/IDW60801.94216.axf

JavaScript Object Notation format (JSON) in row-major order
http://www.bom.gov.au/fwo/IDW60801/IDW60801.94216.json

Data quality

Most of these data are generated automatically and are frequently updated. Quality checks on data are not normally performed. It is possible for incorrect values to appear. Refer to information at About Latest Weather Observations and please check the disclaimer before using these data.